sensor_id;sensor_type;location;lat;lon;timestamp;P1;durP1;ratioP1;P2;durP2;ratioP2
32292;SDS011;43233;48.608;8.838;2023-05-08T00:01:09;7.60;;;6.37;;
32292;SDS011;43233;48.608;8.838;2023-05-08T00:03:35;7.13;;;6.43;;
32292;SDS011;43233;48.608;8.838;2023-05-08T00:06:04;6.57;;;5.87;;
32292;SDS011;43233;48.608;8.838;2023-05-08T00:08:30;11.03;;;6.83;;
32292;SDS011;43233;48.608;8.838;2023-05-08T00:10:56;7.77;;;6.47;;
32292;SDS011;43233;48.608;8.838;2023-05-08T00:13:21;7.50;;;6.80;;
32292;SDS011;43233;48.608;8.838;2023-05-08T00:15:47;6.87;;;5.93;;
32292;SDS011;43233;48.608;8.838;2023-05-08T00:18:13;6.30;;;5.70;;
32292;SDS011;43233;48.608;8.838;2023-05-08T00:20:39;6.53;;;5.93;;
32292;SDS011;43233;48.608;8.838;2023-05-08T00:23:05;9.17;;;7.07;;
32292;SDS011;43233;48.608;8.838;2023-05-08T00:25:31;10.67;;;6.13;;
32292;SDS011;43233;48.608;8.838;2023-05-08T00:27:57;7.10;;;6.37;;
32292;SDS011;43233;48.608;8.838;2023-05-08T00:30:23;6.77;;;6.10;;
32292;SDS011;43233;48.608;8.838;2023-05-08T00:32:49;6.07;;;4.90;;
32292;SDS011;43233;48.608;8.838;2023-05-08T00:35:15;5.00;;;4.60;;
32292;SDS011;43233;48.608;8.838;2023-05-08T00:37:40;8.60;;;6.50;;
32292;SDS011;43233;48.608;8.838;2023-05-08T00:40:08;7.70;;;6.53;;
32292;SDS011;43233;48.608;8.838;2023-05-08T00:42:34;6.40;;;5.80;;
32292;SDS011;43233;48.608;8.838;2023-05-08T00:45:00;6.90;;;6.30;;
32292;SDS011;43233;48.608;8.838;2023-05-08T00:47:26;6.50;;;5.90;;
32292;SDS011;43233;48.608;8.838;2023-05-08T00:49:52;5.50;;;5.10;;
32292;SDS011;43233;48.608;8.838;2023-05-08T00:52:18;7.00;;;6.30;;
32292;SDS011;43233;48.608;8.838;2023-05-08T00:54:44;6.50;;;5.70;;
32292;SDS011;43233;48.608;8.838;2023-05-08T00:57:10;6.77;;;6.13;;
32292;SDS011;43233;48.608;8.838;2023-05-08T00:59:38;5.90;;;5.43;;
32292;SDS011;43233;48.608;8.838;2023-05-08T01:02:05;6.87;;;6.27;;
32292;SDS011;43233;48.608;8.838;2023-05-08T01:04:32;6.70;;;5.63;;
32292;SDS011;43233;48.608;8.838;2023-05-08T01:07:00;9.60;;;6.00;;
32292;SDS011;43233;48.608;8.838;2023-05-08T01:09:26;7.30;;;6.60;;
32292;SDS011;43233;48.608;8.838;2023-05-08T01:11:58;7.00;;;5.87;;
32292;SDS011;43233;48.608;8.838;2023-05-08T01:17:11;6.93;;;6.10;;
32292;SDS011;43233;48.608;8.838;2023-05-08T01:33:48;9.70;;;5.63;;
32292;SDS011;43233;48.608;8.838;2023-05-08T01:36:32;6.90;;;6.20;;
32292;SDS011;43233;48.608;8.838;2023-05-08T01:39:18;7.63;;;6.90;;
32292;SDS011;43233;48.608;8.838;2023-05-08T01:41:53;6.70;;;6.00;;
32292;SDS011;43233;48.608;8.838;2023-05-08T01:44:27;6.20;;;5.67;;
32292;SDS011;43233;48.608;8.838;2023-05-08T01:46:57;8.40;;;6.10;;
32292;SDS011;43233;48.608;8.838;2023-05-08T01:49:38;7.37;;;6.67;;
32292;SDS011;43233;48.608;8.838;2023-05-08T01:52:18;7.40;;;6.17;;
32292;SDS011;43233;48.608;8.838;2023-05-08T01:54:56;6.90;;;6.30;;
32292;SDS011;43233;48.608;8.838;2023-05-08T01:57:26;8.00;;;6.73;;
32292;SDS011;43233;48.608;8.838;2023-05-08T01:59:54;7.13;;;6.50;;
32292;SDS011;43233;48.608;8.838;2023-05-08T02:02:21;7.20;;;6.53;;
32292;SDS011;43233;48.608;8.838;2023-05-08T02:04:48;8.00;;;6.93;;
32292;SDS011;43233;48.608;8.838;2023-05-08T02:07:16;7.87;;;6.70;;
32292;SDS011;43233;48.608;8.838;2023-05-08T02:09:46;6.23;;;5.73;;
32292;SDS011;43233;48.608;8.838;2023-05-08T02:12:12;6.77;;;6.10;;
32292;SDS011;43233;48.608;8.838;2023-05-08T02:14:41;6.73;;;6.03;;
32292;SDS011;43233;48.608;8.838;2023-05-08T02:17:08;7.37;;;6.67;;
32292;SDS011;43233;48.608;8.838;2023-05-08T02:19:35;7.50;;;6.80;;
32292;SDS011;43233;48.608;8.838;2023-05-08T02:22:04;8.03;;;7.10;;
32292;SDS011;43233;48.608;8.838;2023-05-08T02:24:32;9.23;;;7.53;;
32292;SDS011;43233;48.608;8.838;2023-05-08T02:26:59;8.00;;;7.07;;
32292;SDS011;43233;48.608;8.838;2023-05-08T02:29:26;8.10;;;7.30;;
32292;SDS011;43233;48.608;8.838;2023-05-08T02:31:53;9.40;;;8.13;;
32292;SDS011;43233;48.608;8.838;2023-05-08T02:34:21;11.30;;;7.57;;
32292;SDS011;43233;48.608;8.838;2023-05-08T02:36:51;8.37;;;7.50;;
32292;SDS011;43233;48.608;8.838;2023-05-08T02:39:18;12.53;;;8.10;;
32292;SDS011;43233;48.608;8.838;2023-05-08T02:41:45;13.33;;;8.80;;
32292;SDS011;43233;48.608;8.838;2023-05-08T02:44:12;11.60;;;9.17;;
32292;SDS011;43233;48.608;8.838;2023-05-08T03:00:04;9.07;;;8.17;;
32292;SDS011;43233;48.608;8.838;2023-05-08T03:05:18;12.93;;;9.57;;
32292;SDS011;43233;48.608;8.838;2023-05-08T03:07:56;9.50;;;8.30;;
32292;SDS011;43233;48.608;8.838;2023-05-08T03:10:35;8.03;;;7.17;;
32292;SDS011;43233;48.608;8.838;2023-05-08T03:13:04;9.33;;;8.20;;
32292;SDS011;43233;48.608;8.838;2023-05-08T03:15:37;8.10;;;7.27;;
32292;SDS011;43233;48.608;8.838;2023-05-08T03:18:09;10.57;;;8.67;;
32292;SDS011;43233;48.608;8.838;2023-05-08T03:20:40;8.53;;;7.63;;
32292;SDS011;43233;48.608;8.838;2023-05-08T03:23:11;9.40;;;7.97;;
32292;SDS011;43233;48.608;8.838;2023-05-08T03:25:40;9.10;;;8.10;;
32292;SDS011;43233;48.608;8.838;2023-05-08T03:28:07;8.83;;;7.93;;
32292;SDS011;43233;48.608;8.838;2023-05-08T03:30:35;9.23;;;7.80;;
32292;SDS011;43233;48.608;8.838;2023-05-08T03:33:02;8.07;;;6.97;;
32292;SDS011;43233;48.608;8.838;2023-05-08T03:35:29;10.60;;;8.67;;
32292;SDS011;43233;48.608;8.838;2023-05-08T03:37:56;8.97;;;8.07;;
32292;SDS011;43233;48.608;8.838;2023-05-08T03:40:23;10.30;;;8.87;;
32292;SDS011;43233;48.608;8.838;2023-05-08T03:42:49;10.40;;;8.70;;
32292;SDS011;43233;48.608;8.838;2023-05-08T03:45:15;10.53;;;9.20;;
32292;SDS011;43233;48.608;8.838;2023-05-08T03:47:42;12.23;;;9.53;;
32292;SDS011;43233;48.608;8.838;2023-05-08T03:50:08;14.13;;;9.10;;
32292;SDS011;43233;48.608;8.838;2023-05-08T03:52:34;9.67;;;7.50;;
32292;SDS011;43233;48.608;8.838;2023-05-08T03:55:00;9.67;;;7.90;;
32292;SDS011;43233;48.608;8.838;2023-05-08T03:57:29;9.17;;;7.87;;
32292;SDS011;43233;48.608;8.838;2023-05-08T04:02:49;13.20;;;9.70;;
32292;SDS011;43233;48.608;8.838;2023-05-08T04:07:57;9.90;;;8.90;;
32292;SDS011;43233;48.608;8.838;2023-05-08T04:10:33;9.33;;;8.33;;
32292;SDS011;43233;48.608;8.838;2023-05-08T04:13:08;9.30;;;7.60;;
32292;SDS011;43233;48.608;8.838;2023-05-08T04:15:37;8.20;;;7.13;;
32292;SDS011;43233;48.608;8.838;2023-05-08T04:18:16;7.93;;;7.17;;
32292;SDS011;43233;48.608;8.838;2023-05-08T04:20:46;7.80;;;7.10;;
32292;SDS011;43233;48.608;8.838;2023-05-08T04:23:14;8.23;;;6.83;;
32292;SDS011;43233;48.608;8.838;2023-05-08T04:25:42;9.57;;;8.47;;
32292;SDS011;43233;48.608;8.838;2023-05-08T04:28:10;7.63;;;6.83;;
32292;SDS011;43233;48.608;8.838;2023-05-08T04:30:36;7.43;;;6.33;;
32292;SDS011;43233;48.608;8.838;2023-05-08T04:33:03;6.50;;;5.90;;
32292;SDS011;43233;48.608;8.838;2023-05-08T04:35:30;7.33;;;6.53;;
32292;SDS011;43233;48.608;8.838;2023-05-08T04:37:57;6.90;;;6.00;;
32292;SDS011;43233;48.608;8.838;2023-05-08T04:40:23;13.17;;;7.73;;
32292;SDS011;43233;48.608;8.838;2023-05-08T04:42:49;9.40;;;8.07;;
32292;SDS011;43233;48.608;8.838;2023-05-08T04:45:15;8.50;;;7.53;;
32292;SDS011;43233;48.608;8.838;2023-05-08T04:47:41;11.30;;;8.93;;
32292;SDS011;43233;48.608;8.838;2023-05-08T04:50:07;11.13;;;9.73;;
32292;SDS011;43233;48.608;8.838;2023-05-08T04:52:33;11.40;;;9.47;;
32292;SDS011;43233;48.608;8.838;2023-05-08T04:54:59;7.20;;;6.50;;
32292;SDS011;43233;48.608;8.838;2023-05-08T04:57:24;8.30;;;7.20;;
32292;SDS011;43233;48.608;8.838;2023-05-08T04:59:50;7.27;;;6.53;;
32292;SDS011;43233;48.608;8.838;2023-05-08T05:02:16;7.13;;;6.43;;
32292;SDS011;43233;48.608;8.838;2023-05-08T05:04:42;8.10;;;6.97;;
32292;SDS011;43233;48.608;8.838;2023-05-08T05:07:07;6.57;;;6.00;;
32292;SDS011;43233;48.608;8.838;2023-05-08T05:09:33;11.67;;;9.30;;
32292;SDS011;43233;48.608;8.838;2023-05-08T05:12:01;22.30;;;7.97;;
32292;SDS011;43233;48.608;8.838;2023-05-08T05:14:27;9.70;;;8.57;;
32292;SDS011;43233;48.608;8.838;2023-05-08T05:16:53;10.07;;;8.00;;
32292;SDS011;43233;48.608;8.838;2023-05-08T05:19:18;10.20;;;9.17;;
32292;SDS011;43233;48.608;8.838;2023-05-08T05:21:44;10.60;;;7.70;;
32292;SDS011;43233;48.608;8.838;2023-05-08T05:24:10;9.87;;;7.90;;
32292;SDS011;43233;48.608;8.838;2023-05-08T05:26:36;9.07;;;8.17;;
32292;SDS011;43233;48.608;8.838;2023-05-08T05:29:02;8.67;;;7.77;;
32292;SDS011;43233;48.608;8.838;2023-05-08T05:31:28;9.43;;;8.37;;
32292;SDS011;43233;48.608;8.838;2023-05-08T05:33:54;10.50;;;8.37;;
32292;SDS011;43233;48.608;8.838;2023-05-08T05:36:20;9.23;;;8.23;;
32292;SDS011;43233;48.608;8.838;2023-05-08T05:38:46;11.07;;;9.97;;
32292;SDS011;43233;48.608;8.838;2023-05-08T05:41:11;10.07;;;7.90;;
32292;SDS011;43233;48.608;8.838;2023-05-08T05:43:37;12.73;;;9.30;;
32292;SDS011;43233;48.608;8.838;2023-05-08T05:46:04;10.60;;;9.17;;
32292;SDS011;43233;48.608;8.838;2023-05-08T05:48:30;11.80;;;9.90;;
32292;SDS011;43233;48.608;8.838;2023-05-08T05:50:56;11.70;;;9.43;;
32292;SDS011;43233;48.608;8.838;2023-05-08T05:53:22;12.00;;;9.50;;
32292;SDS011;43233;48.608;8.838;2023-05-08T05:55:48;10.67;;;8.70;;
32292;SDS011;43233;48.608;8.838;2023-05-08T05:58:13;10.00;;;9.00;;
32292;SDS011;43233;48.608;8.838;2023-05-08T06:00:40;10.70;;;9.57;;
32292;SDS011;43233;48.608;8.838;2023-05-08T06:03:07;11.07;;;9.93;;
32292;SDS011;43233;48.608;8.838;2023-05-08T06:05:33;11.70;;;10.00;;
32292;SDS011;43233;48.608;8.838;2023-05-08T06:07:58;11.63;;;9.40;;
32292;SDS011;43233;48.608;8.838;2023-05-08T06:10:24;11.00;;;8.60;;
32292;SDS011;43233;48.608;8.838;2023-05-08T06:12:50;10.80;;;9.53;;
32292;SDS011;43233;48.608;8.838;2023-05-08T06:15:16;11.57;;;9.00;;
32292;SDS011;43233;48.608;8.838;2023-05-08T06:17:42;10.80;;;8.80;;
32292;SDS011;43233;48.608;8.838;2023-05-08T06:20:08;10.10;;;9.03;;
32292;SDS011;43233;48.608;8.838;2023-05-08T06:22:33;11.63;;;9.60;;
32292;SDS011;43233;48.608;8.838;2023-05-08T06:25:01;12.50;;;9.97;;
32292;SDS011;43233;48.608;8.838;2023-05-08T06:27:27;13.60;;;10.33;;
32292;SDS011;43233;48.608;8.838;2023-05-08T06:29:53;14.37;;;9.97;;
32292;SDS011;43233;48.608;8.838;2023-05-08T06:32:19;13.80;;;9.87;;
32292;SDS011;43233;48.608;8.838;2023-05-08T06:34:45;16.13;;;10.13;;
32292;SDS011;43233;48.608;8.838;2023-05-08T06:37:11;12.83;;;10.40;;
32292;SDS011;43233;48.608;8.838;2023-05-08T06:39:37;10.27;;;8.10;;
32292;SDS011;43233;48.608;8.838;2023-05-08T06:42:02;14.50;;;9.93;;
32292;SDS011;43233;48.608;8.838;2023-05-08T06:44:31;13.93;;;10.10;;
32292;SDS011;43233;48.608;8.838;2023-05-08T06:46:57;12.83;;;10.10;;
32292;SDS011;43233;48.608;8.838;2023-05-08T06:49:23;13.53;;;10.70;;
32292;SDS011;43233;48.608;8.838;2023-05-08T06:51:48;12.50;;;10.67;;
32292;SDS011;43233;48.608;8.838;2023-05-08T06:54:14;12.97;;;10.20;;
32292;SDS011;43233;48.608;8.838;2023-05-08T06:56:40;11.50;;;10.00;;
32292;SDS011;43233;48.608;8.838;2023-05-08T06:59:06;16.00;;;10.73;;
32292;SDS011;43233;48.608;8.838;2023-05-08T07:01:31;14.17;;;11.50;;
32292;SDS011;43233;48.608;8.838;2023-05-08T07:03:57;15.80;;;12.37;;
32292;SDS011;43233;48.608;8.838;2023-05-08T07:06:23;13.63;;;11.47;;
32292;SDS011;43233;48.608;8.838;2023-05-08T07:08:48;15.10;;;11.80;;
32292;SDS011;43233;48.608;8.838;2023-05-08T07:11:14;13.17;;;10.83;;
32292;SDS011;43233;48.608;8.838;2023-05-08T07:13:40;12.47;;;9.73;;
32292;SDS011;43233;48.608;8.838;2023-05-08T07:16:10;11.23;;;10.00;;
32292;SDS011;43233;48.608;8.838;2023-05-08T07:18:36;13.03;;;9.67;;
32292;SDS011;43233;48.608;8.838;2023-05-08T07:21:02;11.10;;;8.43;;
32292;SDS011;43233;48.608;8.838;2023-05-08T07:23:28;12.97;;;10.10;;
32292;SDS011;43233;48.608;8.838;2023-05-08T07:25:53;15.30;;;10.40;;
32292;SDS011;43233;48.608;8.838;2023-05-08T07:28:20;14.30;;;9.67;;
32292;SDS011;43233;48.608;8.838;2023-05-08T07:30:45;12.60;;;9.33;;
32292;SDS011;43233;48.608;8.838;2023-05-08T07:33:11;12.33;;;10.53;;
32292;SDS011;43233;48.608;8.838;2023-05-08T07:35:37;12.47;;;10.10;;
32292;SDS011;43233;48.608;8.838;2023-05-08T07:38:04;13.00;;;9.60;;
32292;SDS011;43233;48.608;8.838;2023-05-08T07:40:30;13.73;;;10.70;;
32292;SDS011;43233;48.608;8.838;2023-05-08T07:42:55;10.70;;;8.67;;
32292;SDS011;43233;48.608;8.838;2023-05-08T07:45:21;12.83;;;10.97;;
32292;SDS011;43233;48.608;8.838;2023-05-08T07:47:54;11.83;;;9.40;;
32292;SDS011;43233;48.608;8.838;2023-05-08T07:50:21;11.67;;;9.87;;
32292;SDS011;43233;48.608;8.838;2023-05-08T07:52:48;12.90;;;8.97;;
32292;SDS011;43233;48.608;8.838;2023-05-08T07:55:14;13.40;;;9.80;;
32292;SDS011;43233;48.608;8.838;2023-05-08T07:57:40;12.60;;;8.90;;
32292;SDS011;43233;48.608;8.838;2023-05-08T08:00:08;11.80;;;9.50;;
32292;SDS011;43233;48.608;8.838;2023-05-08T08:02:37;11.00;;;9.63;;
32292;SDS011;43233;48.608;8.838;2023-05-08T08:05:03;12.77;;;9.93;;
32292;SDS011;43233;48.608;8.838;2023-05-08T08:07:30;10.83;;;9.57;;
32292;SDS011;43233;48.608;8.838;2023-05-08T08:09:58;11.37;;;9.87;;
32292;SDS011;43233;48.608;8.838;2023-05-08T08:12:25;12.83;;;9.90;;
32292;SDS011;43233;48.608;8.838;2023-05-08T08:14:51;16.57;;;8.60;;
32292;SDS011;43233;48.608;8.838;2023-05-08T08:17:16;13.83;;;10.43;;
32292;SDS011;43233;48.608;8.838;2023-05-08T08:19:42;10.53;;;9.30;;
32292;SDS011;43233;48.608;8.838;2023-05-08T08:22:08;13.20;;;9.80;;
32292;SDS011;43233;48.608;8.838;2023-05-08T08:24:34;13.53;;;10.30;;
32292;SDS011;43233;48.608;8.838;2023-05-08T08:27:00;12.47;;;10.40;;
32292;SDS011;43233;48.608;8.838;2023-05-08T08:29:26;16.43;;;9.50;;
32292;SDS011;43233;48.608;8.838;2023-05-08T08:31:52;12.90;;;10.53;;
32292;SDS011;43233;48.608;8.838;2023-05-08T08:34:17;10.87;;;8.73;;
32292;SDS011;43233;48.608;8.838;2023-05-08T08:36:43;10.40;;;9.10;;
32292;SDS011;43233;48.608;8.838;2023-05-08T08:39:09;13.47;;;9.70;;
32292;SDS011;43233;48.608;8.838;2023-05-08T08:41:35;12.83;;;9.30;;
32292;SDS011;43233;48.608;8.838;2023-05-08T08:44:05;13.03;;;10.27;;
32292;SDS011;43233;48.608;8.838;2023-05-08T08:46:31;14.73;;;10.10;;
32292;SDS011;43233;48.608;8.838;2023-05-08T08:49:01;11.93;;;9.93;;
32292;SDS011;43233;48.608;8.838;2023-05-08T08:51:35;14.63;;;9.37;;
32292;SDS011;43233;48.608;8.838;2023-05-08T08:54:11;15.00;;;10.73;;
32292;SDS011;43233;48.608;8.838;2023-05-08T08:56:38;14.07;;;9.93;;
32292;SDS011;43233;48.608;8.838;2023-05-08T08:59:07;11.30;;;8.43;;
32292;SDS011;43233;48.608;8.838;2023-05-08T09:01:34;11.87;;;9.47;;
32292;SDS011;43233;48.608;8.838;2023-05-08T09:04:02;15.00;;;9.83;;
32292;SDS011;43233;48.608;8.838;2023-05-08T09:06:29;14.73;;;9.60;;
32292;SDS011;43233;48.608;8.838;2023-05-08T09:08:59;12.73;;;9.73;;
32292;SDS011;43233;48.608;8.838;2023-05-08T09:11:27;12.20;;;9.27;;
32292;SDS011;43233;48.608;8.838;2023-05-08T09:13:56;9.37;;;7.50;;
32292;SDS011;43233;48.608;8.838;2023-05-08T09:16:22;8.43;;;6.97;;
32292;SDS011;43233;48.608;8.838;2023-05-08T09:18:49;12.10;;;8.07;;
32292;SDS011;43233;48.608;8.838;2023-05-08T09:21:15;10.70;;;8.20;;
32292;SDS011;43233;48.608;8.838;2023-05-08T09:26:30;9.10;;;7.10;;
32292;SDS011;43233;48.608;8.838;2023-05-08T09:29:22;9.10;;;7.97;;
32292;SDS011;43233;48.608;8.838;2023-05-08T09:31:48;10.70;;;7.37;;
32292;SDS011;43233;48.608;8.838;2023-05-08T09:34:21;8.87;;;7.03;;
32292;SDS011;43233;48.608;8.838;2023-05-08T09:36:52;10.50;;;8.07;;
32292;SDS011;43233;48.608;8.838;2023-05-08T09:39:22;10.57;;;7.40;;
32292;SDS011;43233;48.608;8.838;2023-05-08T09:41:59;9.07;;;7.60;;
32292;SDS011;43233;48.608;8.838;2023-05-08T09:44:26;8.90;;;7.40;;
32292;SDS011;43233;48.608;8.838;2023-05-08T09:46:53;6.93;;;6.23;;
32292;SDS011;43233;48.608;8.838;2023-05-08T09:52:33;8.60;;;6.83;;
32292;SDS011;43233;48.608;8.838;2023-05-08T09:57:28;9.33;;;6.33;;
32292;SDS011;43233;48.608;8.838;2023-05-08T10:00:08;7.07;;;6.37;;
32292;SDS011;43233;48.608;8.838;2023-05-08T10:02:35;7.40;;;6.70;;
32292;SDS011;43233;48.608;8.838;2023-05-08T10:05:03;7.80;;;6.57;;
32292;SDS011;43233;48.608;8.838;2023-05-08T10:07:47;7.60;;;6.63;;
32292;SDS011;43233;48.608;8.838;2023-05-08T10:10:13;8.13;;;7.33;;
32292;SDS011;43233;48.608;8.838;2023-05-08T10:12:39;8.20;;;7.40;;
32292;SDS011;43233;48.608;8.838;2023-05-08T10:15:05;9.93;;;8.47;;
32292;SDS011;43233;48.608;8.838;2023-05-08T10:17:43;6.57;;;5.93;;
32292;SDS011;43233;48.608;8.838;2023-05-08T10:20:17;8.37;;;7.10;;
32292;SDS011;43233;48.608;8.838;2023-05-08T10:22:45;6.77;;;6.00;;
32292;SDS011;43233;48.608;8.838;2023-05-08T10:25:16;6.70;;;6.10;;
32292;SDS011;43233;48.608;8.838;2023-05-08T10:30:47;5.10;;;4.60;;
32292;SDS011;43233;48.608;8.838;2023-05-08T10:33:15;7.00;;;6.20;;
32292;SDS011;43233;48.608;8.838;2023-05-08T10:35:45;6.20;;;5.60;;
32292;SDS011;43233;48.608;8.838;2023-05-08T10:38:12;6.63;;;5.80;;
32292;SDS011;43233;48.608;8.838;2023-05-08T10:40:40;8.10;;;6.83;;
32292;SDS011;43233;48.608;8.838;2023-05-08T10:43:06;8.03;;;7.10;;
32292;SDS011;43233;48.608;8.838;2023-05-08T10:45:36;9.40;;;7.60;;
32292;SDS011;43233;48.608;8.838;2023-05-08T10:53:35;5.17;;;4.77;;
32292;SDS011;43233;48.608;8.838;2023-05-08T10:56:03;7.23;;;6.60;;
32292;SDS011;43233;48.608;8.838;2023-05-08T10:58:30;9.17;;;8.20;;
32292;SDS011;43233;48.608;8.838;2023-05-08T11:03:31;9.27;;;8.20;;
32292;SDS011;43233;48.608;8.838;2023-05-08T11:06:02;14.23;;;6.40;;
32292;SDS011;43233;48.608;8.838;2023-05-08T11:08:29;9.07;;;7.87;;
32292;SDS011;43233;48.608;8.838;2023-05-08T11:13:33;8.80;;;7.90;;
32292;SDS011;43233;48.608;8.838;2023-05-08T11:16:03;7.20;;;6.50;;
32292;SDS011;43233;48.608;8.838;2023-05-08T11:18:35;10.70;;;9.37;;
32292;SDS011;43233;48.608;8.838;2023-05-08T11:21:04;8.87;;;7.73;;
32292;SDS011;43233;48.608;8.838;2023-05-08T11:23:33;7.33;;;6.70;;
32292;SDS011;43233;48.608;8.838;2023-05-08T11:26:07;7.73;;;6.70;;
32292;SDS011;43233;48.608;8.838;2023-05-08T11:28:38;9.53;;;7.80;;
32292;SDS011;43233;48.608;8.838;2023-05-08T11:31:19;10.83;;;8.23;;
32292;SDS011;43233;48.608;8.838;2023-05-08T11:33:45;7.60;;;6.90;;
32292;SDS011;43233;48.608;8.838;2023-05-08T11:36:17;9.93;;;7.80;;
32292;SDS011;43233;48.608;8.838;2023-05-08T11:41:32;6.47;;;5.77;;
32292;SDS011;43233;48.608;8.838;2023-05-08T11:47:08;6.07;;;5.50;;
32292;SDS011;43233;48.608;8.838;2023-05-08T11:49:17;5.73;;;5.23;;
32292;SDS011;43233;48.608;8.838;2023-05-08T11:51:45;5.93;;;5.43;;
32292;SDS011;43233;48.608;8.838;2023-05-08T11:54:17;5.57;;;5.10;;
32292;SDS011;43233;48.608;8.838;2023-05-08T11:56:50;5.77;;;5.00;;
32292;SDS011;43233;48.608;8.838;2023-05-08T11:59:17;3.77;;;3.47;;
32292;SDS011;43233;48.608;8.838;2023-05-08T12:01:43;4.63;;;4.23;;
32292;SDS011;43233;48.608;8.838;2023-05-08T12:04:10;5.93;;;5.33;;
32292;SDS011;43233;48.608;8.838;2023-05-08T12:06:38;4.70;;;3.37;;
32292;SDS011;43233;48.608;8.838;2023-05-08T12:09:09;4.23;;;3.83;;
32292;SDS011;43233;48.608;8.838;2023-05-08T12:11:39;3.60;;;3.30;;
32292;SDS011;43233;48.608;8.838;2023-05-08T12:14:07;4.20;;;3.80;;
32292;SDS011;43233;48.608;8.838;2023-05-08T12:16:35;4.13;;;3.83;;
32292;SDS011;43233;48.608;8.838;2023-05-08T12:19:02;3.43;;;3.20;;
32292;SDS011;43233;48.608;8.838;2023-05-08T12:21:29;3.23;;;3.03;;
32292;SDS011;43233;48.608;8.838;2023-05-08T12:23:54;3.00;;;2.80;;
32292;SDS011;43233;48.608;8.838;2023-05-08T12:26:21;2.60;;;2.50;;
32292;SDS011;43233;48.608;8.838;2023-05-08T12:28:52;3.93;;;3.47;;
32292;SDS011;43233;48.608;8.838;2023-05-08T12:31:19;2.10;;;2.00;;
32292;SDS011;43233;48.608;8.838;2023-05-08T12:33:46;1.83;;;1.73;;
32292;SDS011;43233;48.608;8.838;2023-05-08T12:36:12;1.80;;;1.70;;
32292;SDS011;43233;48.608;8.838;2023-05-08T12:38:38;2.80;;;2.60;;
32292;SDS011;43233;48.608;8.838;2023-05-08T12:41:03;2.50;;;2.30;;
32292;SDS011;43233;48.608;8.838;2023-05-08T12:43:35;2.17;;;1.97;;
32292;SDS011;43233;48.608;8.838;2023-05-08T12:46:04;1.63;;;1.53;;
32292;SDS011;43233;48.608;8.838;2023-05-08T12:48:35;2.50;;;1.40;;
32292;SDS011;43233;48.608;8.838;2023-05-08T12:51:04;1.80;;;1.70;;
32292;SDS011;43233;48.608;8.838;2023-05-08T12:53:31;1.90;;;1.80;;
32292;SDS011;43233;48.608;8.838;2023-05-08T12:55:59;4.40;;;1.80;;
32292;SDS011;43233;48.608;8.838;2023-05-08T12:58:28;1.97;;;1.87;;
32292;SDS011;43233;48.608;8.838;2023-05-08T13:03:37;1.80;;;1.70;;
32292;SDS011;43233;48.608;8.838;2023-05-08T13:06:04;2.43;;;2.23;;
32292;SDS011;43233;48.608;8.838;2023-05-08T13:08:33;3.00;;;2.73;;
32292;SDS011;43233;48.608;8.838;2023-05-08T13:11:06;2.17;;;2.07;;
32292;SDS011;43233;48.608;8.838;2023-05-08T13:13:32;1.77;;;1.67;;
32292;SDS011;43233;48.608;8.838;2023-05-08T13:16:03;1.63;;;1.53;;
32292;SDS011;43233;48.608;8.838;2023-05-08T13:18:30;1.23;;;1.23;;
32292;SDS011;43233;48.608;8.838;2023-05-08T13:20:57;1.67;;;1.57;;
32292;SDS011;43233;48.608;8.838;2023-05-08T13:23:24;1.70;;;1.60;;
32292;SDS011;43233;48.608;8.838;2023-05-08T13:25:49;1.53;;;1.37;;
32292;SDS011;43233;48.608;8.838;2023-05-08T13:28:15;1.47;;;1.30;;
32292;SDS011;43233;48.608;8.838;2023-05-08T13:30:41;2.50;;;1.50;;
32292;SDS011;43233;48.608;8.838;2023-05-08T13:33:07;2.50;;;2.30;;
32292;SDS011;43233;48.608;8.838;2023-05-08T13:35:33;2.17;;;2.07;;
32292;SDS011;43233;48.608;8.838;2023-05-08T13:37:59;2.97;;;2.33;;
32292;SDS011;43233;48.608;8.838;2023-05-08T13:40:25;2.10;;;2.00;;
32292;SDS011;43233;48.608;8.838;2023-05-08T13:42:51;2.27;;;2.13;;
32292;SDS011;43233;48.608;8.838;2023-05-08T13:45:17;3.10;;;2.60;;
32292;SDS011;43233;48.608;8.838;2023-05-08T13:47:43;2.70;;;2.50;;
32292;SDS011;43233;48.608;8.838;2023-05-08T13:50:10;2.43;;;2.33;;
32292;SDS011;43233;48.608;8.838;2023-05-08T13:52:42;3.27;;;2.20;;
32292;SDS011;43233;48.608;8.838;2023-05-08T13:55:09;2.80;;;2.60;;
32292;SDS011;43233;48.608;8.838;2023-05-08T13:57:38;3.30;;;3.03;;
32292;SDS011;43233;48.608;8.838;2023-05-08T14:00:04;2.60;;;2.40;;
32292;SDS011;43233;48.608;8.838;2023-05-08T14:02:31;2.97;;;2.67;;
32292;SDS011;43233;48.608;8.838;2023-05-08T14:04:57;3.23;;;2.93;;
32292;SDS011;43233;48.608;8.838;2023-05-08T14:07:23;3.47;;;3.27;;
32292;SDS011;43233;48.608;8.838;2023-05-08T14:09:48;4.37;;;3.97;;
32292;SDS011;43233;48.608;8.838;2023-05-08T14:12:14;6.73;;;4.43;;
32292;SDS011;43233;48.608;8.838;2023-05-08T14:14:40;4.67;;;4.17;;
32292;SDS011;43233;48.608;8.838;2023-05-08T14:17:06;4.53;;;4.13;;
32292;SDS011;43233;48.608;8.838;2023-05-08T14:19:32;4.07;;;3.77;;
32292;SDS011;43233;48.608;8.838;2023-05-08T14:21:58;3.80;;;3.43;;
32292;SDS011;43233;48.608;8.838;2023-05-08T14:24:24;3.67;;;3.40;;
32292;SDS011;43233;48.608;8.838;2023-05-08T14:26:50;5.73;;;3.90;;
32292;SDS011;43233;48.608;8.838;2023-05-08T14:29:20;4.43;;;4.03;;
32292;SDS011;43233;48.608;8.838;2023-05-08T14:31:45;7.30;;;4.57;;
32292;SDS011;43233;48.608;8.838;2023-05-08T14:34:11;4.23;;;3.57;;
32292;SDS011;43233;48.608;8.838;2023-05-08T14:36:37;4.93;;;3.70;;
32292;SDS011;43233;48.608;8.838;2023-05-08T14:39:03;5.13;;;3.67;;
32292;SDS011;43233;48.608;8.838;2023-05-08T14:41:29;5.70;;;4.40;;
32292;SDS011;43233;48.608;8.838;2023-05-08T14:43:56;4.93;;;4.50;;
32292;SDS011;43233;48.608;8.838;2023-05-08T14:46:44;4.67;;;4.30;;
32292;SDS011;43233;48.608;8.838;2023-05-08T14:49:10;4.53;;;4.13;;
32292;SDS011;43233;48.608;8.838;2023-05-08T14:51:35;3.80;;;3.50;;
32292;SDS011;43233;48.608;8.838;2023-05-08T14:54:01;3.67;;;3.47;;
32292;SDS011;43233;48.608;8.838;2023-05-08T14:56:27;3.83;;;3.50;;
32292;SDS011;43233;48.608;8.838;2023-05-08T14:58:52;4.60;;;4.30;;
32292;SDS011;43233;48.608;8.838;2023-05-08T15:01:19;3.77;;;3.47;;
32292;SDS011;43233;48.608;8.838;2023-05-08T15:03:46;5.70;;;5.20;;
32292;SDS011;43233;48.608;8.838;2023-05-08T15:06:17;5.60;;;4.90;;
32292;SDS011;43233;48.608;8.838;2023-05-08T15:08:45;5.30;;;4.80;;
32292;SDS011;43233;48.608;8.838;2023-05-08T15:11:11;4.07;;;3.83;;
32292;SDS011;43233;48.608;8.838;2023-05-08T15:13:36;5.00;;;4.37;;
32292;SDS011;43233;48.608;8.838;2023-05-08T15:16:02;4.37;;;4.07;;
32292;SDS011;43233;48.608;8.838;2023-05-08T15:18:28;6.87;;;4.60;;
32292;SDS011;43233;48.608;8.838;2023-05-08T15:20:54;4.63;;;4.17;;
32292;SDS011;43233;48.608;8.838;2023-05-08T15:23:20;4.17;;;3.87;;
32292;SDS011;43233;48.608;8.838;2023-05-08T15:25:45;4.50;;;3.53;;
32292;SDS011;43233;48.608;8.838;2023-05-08T15:28:11;6.87;;;6.17;;
32292;SDS011;43233;48.608;8.838;2023-05-08T15:30:37;7.40;;;6.70;;
32292;SDS011;43233;48.608;8.838;2023-05-08T15:33:02;8.20;;;6.83;;
32292;SDS011;43233;48.608;8.838;2023-05-08T15:35:28;9.20;;;7.70;;
32292;SDS011;43233;48.608;8.838;2023-05-08T15:37:54;9.47;;;7.73;;
32292;SDS011;43233;48.608;8.838;2023-05-08T15:40:20;8.57;;;6.53;;
32292;SDS011;43233;48.608;8.838;2023-05-08T15:42:45;11.03;;;8.80;;
32292;SDS011;43233;48.608;8.838;2023-05-08T15:45:11;8.97;;;8.03;;
32292;SDS011;43233;48.608;8.838;2023-05-08T15:47:37;10.40;;;8.87;;
32292;SDS011;43233;48.608;8.838;2023-05-08T15:50:05;18.50;;;9.50;;
32292;SDS011;43233;48.608;8.838;2023-05-08T15:52:33;17.10;;;10.83;;